Time;durP1;ratioP1;P1;durP2;ratioP2;P2;SDS_P1;SDS_P2;PMS_P1;PMS_P2;Temp;Humidity;BMP_temperature;BMP_pressure;BME280_temperature;BME280_humidity;BME280_pressure;Samples;Min_cycle;Max_cycle;Signal;HPM_P1;HPM_P2
2022/06/17 00:02:09;;;;;;;4.00;2.60;;;;;;;16.17;100.00;98886.19;4485608;31;20119;-78
2022/06/17 00:04:37;;;;;;;5.65;2.58;;;;;;;16.08;100.00;98880.94;4485502;31;20108;-78
2022/06/17 00:07:23;;;;;;;4.10;2.85;;;;;;;16.22;100.00;98886.53;4485421;32;20084;-78
2022/06/17 00:09:50;;;;;;;2.78;2.37;;;;;;;16.29;100.00;98876.91;4485595;32;20399;-78
2022/06/17 00:12:17;;;;;;;3.85;2.28;;;;;;;16.21;100.00;98883.03;4485459;31;20096;-78
2022/06/17 00:17:30;;;;;;;4.45;2.00;;;;;;;16.16;100.00;98884.56;4485170;31;20096;-78
2022/06/17 00:19:58;;;;;;;3.00;1.80;;;;;;;16.22;100.00;98878.59;4485487;31;20461;-78
2022/06/17 00:22:25;;;;;;;4.07;1.90;;;;;;;16.20;100.00;98876.12;4485062;31;20100;-77
2022/06/17 00:24:53;;;;;;;3.95;2.28;;;;;;;16.07;100.00;98875.84;4485395;31;20132;-77
2022/06/17 00:27:20;;;;;;;4.12;2.10;;;;;;;16.16;100.00;98881.94;4485363;31;20092;-77
2022/06/17 00:29:47;;;;;;;4.60;2.87;;;;;;;16.10;100.00;98892.16;4485366;31;20084;-77
2022/06/17 00:32:15;;;;;;;2.92;2.25;;;;;;;16.20;100.00;98891.16;4485487;31;20204;-78
2022/06/17 00:34:43;;;;;;;8.05;3.37;;;;;;;16.23;100.00;98896.09;4485282;31;20118;-77
2022/06/17 00:37:13;;;;;;;4.30;2.75;;;;;;;16.03;100.00;98898.31;4485323;31;20092;-77
2022/06/17 00:39:40;;;;;;;6.78;3.42;;;;;;;16.00;100.00;98894.16;4484083;32;20111;-77
2022/06/17 00:42:11;;;;;;;7.75;3.60;;;;;;;15.92;100.00;98900.28;4483960;32;20166;-78
2022/06/17 00:44:57;;;;;;;6.37;3.97;;;;;;;15.86;100.00;98886.94;4483944;32;20481;-78
2022/06/17 00:47:24;;;;;;;9.50;4.22;;;;;;;15.78;100.00;98885.16;4485045;31;20096;-77
2022/06/17 00:50:15;;;;;;;8.73;3.87;;;;;;;15.78;100.00;98887.78;4485294;31;20506;-78
2022/06/17 00:53:02;;;;;;;6.47;3.20;;;;;;;15.88;100.00;98887.59;4485194;32;20100;-78
2022/06/17 00:55:37;;;;;;;6.68;3.20;;;;;;;15.92;100.00;98886.28;4485294;31;20111;-78
2022/06/17 00:58:14;;;;;;;6.15;3.97;;;;;;;15.93;100.00;98885.28;4485373;31;20476;-78
2022/06/17 01:00:42;;;;;;;6.12;3.12;;;;;;;16.18;100.00;98890.50;4484417;32;20110;-78
2022/06/17 01:03:14;;;;;;;15.52;3.83;;;;;;;16.19;100.00;98890.31;4484361;32;20160;-78
2022/06/17 01:05:49;;;;;;;8.45;3.08;;;;;;;15.81;100.00;98898.03;4485508;31;20144;-78
2022/06/17 01:11:12;;;;;;;5.15;3.67;;;;;;;15.26;100.00;98886.28;4485312;31;20187;-78
2022/06/17 01:13:40;;;;;;;7.97;3.33;;;;;;;15.24;100.00;98883.00;4485274;32;20139;-78
2022/06/17 01:16:08;;;;;;;4.65;3.00;;;;;;;15.27;100.00;98887.94;4483724;32;20112;-78
2022/06/17 01:18:38;;;;;;;4.22;3.30;;;;;;;15.21;100.00;98896.53;4483913;32;20434;-78
2022/06/17 01:21:22;;;;;;;6.15;2.75;;;;;;;15.17;100.00;98897.81;4484060;32;20080;-78
2022/06/17 01:23:49;;;;;;;4.50;3.25;;;;;;;15.19;100.00;98893.22;4483881;32;20109;-78
2022/06/17 01:26:18;;;;;;;7.30;3.33;;;;;;;15.18;100.00;98891.56;4483697;32;20131;-78
2022/06/17 01:28:45;;;;;;;4.80;3.17;;;;;;;15.07;100.00;98906.72;4485206;31;20097;-78
2022/06/17 01:31:12;;;;;;;8.02;3.17;;;;;;;15.00;100.00;98905.72;4484901;32;20152;-78
2022/06/17 01:33:41;;;;;;;6.03;3.10;;;;;;;15.31;100.00;98907.75;4485091;31;20093;-78
2022/06/17 01:36:14;;;;;;;4.97;3.42;;;;;;;15.19;100.00;98909.06;4484842;31;20096;-78
2022/06/17 01:38:44;;;;;;;7.70;3.33;;;;;;;15.12;100.00;98918.63;4485012;31;20084;-78
2022/06/17 01:41:14;;;;;;;4.72;3.25;;;;;;;15.19;100.00;98914.34;4483854;32;20084;-78
2022/06/17 01:43:48;;;;;;;7.28;3.53;;;;;;;15.24;100.00;98912.84;4485058;31;20406;-78
2022/06/17 01:46:26;;;;;;;4.85;3.47;;;;;;;15.16;100.00;98914.66;4484808;31;20098;-78
2022/06/17 01:48:58;;;;;;;6.62;3.25;;;;;;;15.14;100.00;98911.34;4483409;32;20467;-78
2022/06/17 01:51:26;;;;;;;5.28;3.15;;;;;;;15.13;100.00;98917.63;4483536;32;20083;-78
2022/06/17 01:53:56;;;;;;;6.57;3.70;;;;;;;15.16;100.00;98917.31;4483706;32;20104;-78
2022/06/17 01:56:28;;;;;;;6.95;3.60;;;;;;;15.02;100.00;98924.88;4483628;32;20184;-78
2022/06/17 01:59:01;;;;;;;5.80;3.80;;;;;;;15.02;100.00;98924.88;4483452;32;20156;-79
2022/06/17 02:01:30;;;;;;;9.07;4.57;;;;;;;15.02;100.00;98932.78;4483646;32;20454;-78
2022/06/17 02:04:13;;;;;;;7.62;4.30;;;;;;;14.98;100.00;98928.81;4483382;32;20127;-78
2022/06/17 02:06:40;;;;;;;6.45;3.85;;;;;;;15.07;100.00;98930.47;4483263;32;20164;-78
2022/06/17 02:09:08;;;;;;;8.25;4.20;;;;;;;15.13;100.00;98928.19;4484313;32;20123;-78
2022/06/17 02:11:35;;;;;;;11.35;4.12;;;;;;;15.01;100.00;98917.94;4484721;31;20126;-79
2022/06/17 02:14:06;;;;;;;7.75;4.07;;;;;;;15.01;100.00;98919.75;4483261;32;20166;-78
2022/06/17 02:16:36;;;;;;;6.55;3.87;;;;;;;14.99;100.00;98919.91;4483456;32;20088;-78
2022/06/17 02:19:04;;;;;;;7.53;4.68;;;;;;;14.88;100.00;98923.69;4482978;32;20105;-78
2022/06/17 02:21:42;;;;;;;7.00;4.37;;;;;;;14.86;100.00;98919.53;4484575;32;20110;-78
2022/06/17 02:24:10;;;;;;;7.00;3.78;;;;;;;14.92;100.00;98918.09;4483167;32;20092;-78
2022/06/17 02:26:39;;;;;;;6.85;4.03;;;;;;;14.92;100.00;98923.34;4482825;32;20429;-78
2022/06/17 02:29:10;;;;;;;9.35;4.43;;;;;;;14.93;100.00;98917.91;4483280;32;20092;-78
2022/06/17 02:31:39;;;;;;;8.02;4.68;;;;;;;14.95;100.00;98918.56;4483974;31;20091;-78
2022/06/17 02:34:08;;;;;;;10.60;4.78;;;;;;;14.93;100.00;98917.91;4484134;31;20429;-79
2022/06/17 02:36:55;;;;;;;7.85;4.40;;;;;;;14.92;100.00;98916.25;4482804;32;20165;-78
2022/06/17 02:39:22;;;;;;;18.62;5.18;;;;;;;14.92;100.00;98918.91;4484714;32;20089;-78
2022/06/17 02:41:50;;;;;;;5.93;4.47;;;;;;;14.87;100.00;98921.22;4486388;31;20160;-78
2022/06/17 02:44:28;;;;;;;5.72;4.45;;;;;;;14.89;100.00;98924.50;4484985;32;20108;-79
2022/06/17 02:46:56;;;;;;;6.70;4.25;;;;;;;14.97;100.00;98924.50;4485017;32;20099;-79
2022/06/17 02:49:26;;;;;;;6.78;3.92;;;;;;;15.00;100.00;98926.81;4485095;32;20109;-79
2022/06/17 02:51:54;;;;;;;5.20;3.70;;;;;;;14.98;100.00;98936.72;4486566;31;20434;-79
2022/06/17 02:54:28;;;;;;;9.98;4.25;;;;;;;15.05;100.00;98927.19;4486398;31;20438;-79
2022/06/17 02:56:56;;;;;;;7.45;4.47;;;;;;;15.06;100.00;98928.00;4486380;31;20148;-79
2022/06/17 02:59:33;;;;;;;7.37;3.97;;;;;;;14.96;100.00;98933.44;4484965;32;20453;-79
2022/06/17 03:02:24;;;;;;;6.50;4.15;;;;;;;15.04;100.00;98933.44;4484865;32;20494;-79
2022/06/17 03:04:53;;;;;;;5.95;4.20;;;;;;;15.07;100.00;98930.47;4485868;31;20088;-79
2022/06/17 03:07:23;;;;;;;9.10;4.18;;;;;;;15.12;100.00;98908.06;4486316;32;20092;-79
2022/06/17 03:09:51;;;;;;;5.10;3.65;;;;;;;15.10;100.00;98912.69;4486024;31;20552;-79
2022/06/17 03:12:27;;;;;;;5.40;3.62;;;;;;;15.19;100.00;98909.06;4486192;31;20100;-79
2022/06/17 03:15:03;;;;;;;5.43;3.95;;;;;;;15.20;100.00;98902.78;4484972;32;20396;-79
2022/06/17 03:17:32;;;;;;;4.70;3.25;;;;;;;15.36;100.00;98909.91;4485875;31;20148;-79
2022/06/17 03:20:02;;;;;;;4.20;3.05;;;;;;;15.31;100.00;98906.94;4484887;32;20565;-79
2022/06/17 03:22:30;;;;;;;4.62;3.20;;;;;;;15.50;100.00;98906.59;4485669;31;20088;-79
2022/06/17 03:25:05;;;;;;;6.25;3.17;;;;;;;15.84;100.00;98908.25;4485825;31;20908;-79
2022/06/17 03:27:45;;;;;;;6.00;3.22;;;;;;;16.01;100.00;98914.31;4484775;32;20127;-79
2022/06/17 03:30:18;;;;;;;5.80;3.20;;;;;;;16.05;100.00;98912.16;4485938;31;20118;-79
2022/06/17 03:32:49;;;;;;;7.53;3.87;;;;;;;16.09;100.00;98910.84;4486038;31;20087;-79
2022/06/17 03:35:22;;;;;;;4.68;3.17;;;;;;;16.00;100.00;98910.03;4484484;32;20156;-79
2022/06/17 03:37:54;;;;;;;4.97;3.08;;;;;;;16.22;100.00;98908.50;4484870;32;20109;-79
2022/06/17 03:40:27;;;;;;;6.50;2.70;;;;;;;16.37;100.00;98911.25;4484657;32;20484;-79
2022/06/17 03:43:17;;;;;;;3.85;2.83;;;;;;;16.44;100.00;98914.88;4484813;32;20080;-79
2022/06/17 03:45:46;;;;;;;2.70;1.85;;;;;;;16.64;97.95;98925.03;4484501;32;20089;-79
2022/06/17 03:48:14;;;;;;;4.07;2.30;;;;;;;16.78;97.28;98926.13;4485322;31;20093;-79
2022/06/17 03:50:45;;;;;;;8.20;2.80;;;;;;;16.75;96.93;98929.94;4485981;31;20095;-79
2022/06/17 03:53:24;;;;;;;3.90;2.83;;;;;;;16.67;97.66;98935.28;4485965;32;20118;-79
2022/06/17 03:55:53;;;;;;;3.92;2.50;;;;;;;16.75;97.05;98932.56;4485961;31;20081;-79
2022/06/17 03:58:21;;;;;;;5.53;2.90;;;;;;;16.87;96.65;98941.00;4484477;32;20104;-79
2022/06/17 04:01:01;;;;;;;4.50;3.17;;;;;;;16.67;98.49;98937.91;4484768;32;20096;-79
2022/06/17 04:03:34;;;;;;;5.93;3.30;;;;;;;16.75;99.11;98940.50;4484590;32;20184;-79
2022/06/17 04:06:14;;;;;;;8.77;3.87;;;;;;;16.92;97.70;98953.69;4484312;32;20153;-79
2022/06/17 04:08:58;;;;;;;4.45;3.12;;;;;;;16.85;97.69;98948.22;4484497;32;20108;-81
2022/06/17 04:11:28;;;;;;;6.43;3.45;;;;;;;16.73;97.35;98949.59;4484477;32;20092;-79
2022/06/17 04:13:57;;;;;;;6.82;3.60;;;;;;;16.78;96.93;98948.09;4484571;32;20521;-79
2022/06/17 04:16:43;;;;;;;6.25;3.50;;;;;;;16.71;96.91;98952.44;4483654;32;20089;-79
2022/06/17 04:19:20;;;;;;;4.62;3.05;;;;;;;16.72;96.90;98956.72;4482851;32;20123;-79
2022/06/17 04:21:48;;;;;;;4.68;3.67;;;;;;;16.89;95.98;98964.63;4483822;31;20088;-78
2022/06/17 04:24:22;;;;;;;7.35;3.35;;;;;;;17.10;95.53;98971.97;4482665;32;20517;-79
2022/06/17 04:26:55;;;;;;;9.60;4.10;;;;;;;17.27;95.59;98964.75;4483664;31;20159;-78
2022/06/17 04:29:34;;;;;;;6.62;3.50;;;;;;;17.24;95.05;98967.75;4484312;32;20477;-78
2022/06/17 04:32:13;;;;;;;6.80;3.58;;;;;;;17.28;95.01;98975.16;4475405;32;20458;-79
2022/06/17 04:34:41;;;;;;;4.60;3.62;;;;;;;17.34;95.62;98968.34;4469923;32;20076;-79
2022/06/17 04:37:17;;;;;;;4.00;3.15;;;;;;;17.35;95.13;98967.31;4468565;32;20100;-79
2022/06/17 04:39:51;;;;;;;5.18;3.40;;;;;;;17.45;93.73;98965.28;4466602;32;20454;-79
2022/06/17 04:42:40;;;;;;;6.05;3.00;;;;;;;17.19;94.35;98971.72;4468751;32;20480;-79
2022/06/17 04:45:29;;;;;;;7.10;3.15;;;;;;;17.41;92.75;98968.44;4455381;32;20084;-79
2022/06/17 04:47:57;;;;;;;5.20;3.05;;;;;;;17.45;93.70;98967.91;4469334;32;20164;-79
2022/06/17 04:50:27;;;;;;;4.35;2.87;;;;;;;17.63;93.14;98958.88;4468153;32;20109;-79
2022/06/17 04:52:55;;;;;;;5.60;3.35;;;;;;;17.87;92.67;98974.56;4468659;32;20179;-79
2022/06/17 04:55:32;;;;;;;4.62;3.12;;;;;;;17.85;92.78;98965.13;4469825;32;20108;-79
2022/06/17 04:58:00;;;;;;;6.93;3.17;;;;;;;17.61;93.35;98972.28;4469527;32;20089;-79
2022/06/17 05:00:28;;;;;;;4.60;2.55;;;;;;;17.79;92.91;98977.28;4477949;32;20554;-79
2022/06/17 05:02:57;;;;;;;4.78;2.80;;;;;;;17.89;92.51;98969.09;4485394;31;20092;-79
2022/06/17 05:05:37;;;;;;;8.77;2.67;;;;;;;18.02;90.96;98968.50;4485283;31;20072;-79
2022/06/17 05:08:12;;;;;;;4.72;2.50;;;;;;;18.13;90.60;98961.94;4483818;31;20099;-79
2022/06/17 05:10:42;;;;;;;4.87;2.45;;;;;;;18.12;88.68;98968.22;4485161;31;20446;-80
2022/06/17 05:13:14;;;;;;;7.70;2.22;;;;;;;18.26;89.08;98970.09;4482946;32;20108;-80
2022/06/17 05:15:41;;;;;;;6.68;2.90;;;;;;;18.24;89.18;98985.34;4484211;31;20097;-80
2022/06/17 05:18:09;;;;;;;2.58;2.03;;;;;;;18.43;88.79;98974.19;4485219;32;20100;-81
2022/06/17 05:20:37;;;;;;;2.67;2.35;;;;;;;18.26;89.59;98975.38;4484739;31;20548;-81
2022/06/17 05:23:07;;;;;;;4.30;2.37;;;;;;;18.51;87.67;98970.63;4483464;31;20096;-81
2022/06/17 05:25:42;;;;;;;3.35;2.12;;;;;;;18.93;85.63;98977.09;4484084;31;20512;-80
2022/06/17 05:28:13;;;;;;;3.45;2.03;;;;;;;18.84;85.46;98975.53;4484357;31;20166;-80
2022/06/17 05:30:44;;;;;;;3.10;2.10;;;;;;;19.15;84.76;98967.38;4482994;31;20107;-80
2022/06/17 05:33:14;;;;;;;2.78;2.20;;;;;;;19.25;83.89;98969.69;4484592;31;20092;-80
2022/06/17 05:35:42;;;;;;;4.28;2.30;;;;;;;19.41;81.71;98976.62;4484796;31;20492;-80
2022/06/17 05:38:11;;;;;;;7.37;2.05;;;;;;;19.45;82.31;98977.06;4485020;31;20104;-81
2022/06/17 05:40:39;;;;;;;5.43;2.20;;;;;;;19.54;82.73;98983.06;4484824;31;20109;-80
2022/06/17 05:43:07;;;;;;;2.92;2.35;;;;;;;19.37;82.22;98982.50;4484223;31;20096;-80
2022/06/17 05:45:34;;;;;;;3.87;2.22;;;;;;;19.48;83.54;98988.13;4482885;32;20441;-78
2022/06/17 05:48:02;;;;;;;3.58;2.35;;;;;;;19.31;82.44;98990.19;4483178;31;20567;-76
2022/06/17 05:50:29;;;;;;;4.10;2.30;;;;;;;19.25;82.74;98993.59;4478148;32;20104;-78
2022/06/17 05:52:59;;;;;;;6.18;2.53;;;;;;;19.10;82.86;98996.28;4474408;31;20080;-77
2022/06/17 05:55:31;;;;;;;5.15;2.15;;;;;;;19.25;83.80;98993.59;4469053;32;20081;-79
2022/06/17 05:57:58;;;;;;;8.60;2.80;;;;;;;19.31;83.14;99003.47;4468968;32;20108;-78
2022/06/17 06:00:26;;;;;;;4.57;2.78;;;;;;;19.27;83.50;99015.50;4469107;32;20160;-78
2022/06/17 06:03:02;;;;;;;7.90;2.70;;;;;;;19.53;81.98;99016.81;4467372;32;20815;-78
2022/06/17 06:05:33;;;;;;;3.25;2.72;;;;;;;19.43;83.19;99018.94;4468962;32;20589;-79
2022/06/17 06:08:02;;;;;;;5.57;3.08;;;;;;;19.57;83.89;99023.38;4474044;32;20093;-80
2022/06/17 06:10:34;;;;;;;4.68;2.87;;;;;;;19.49;83.12;99023.50;4474335;32;20084;-81
2022/06/17 06:13:03;;;;;;;4.32;2.67;;;;;;;19.29;84.72;99025.94;4480386;31;20148;-80
2022/06/17 06:15:39;;;;;;;5.72;3.00;;;;;;;19.71;84.45;99021.66;4477767;31;20123;-80
2022/06/17 06:18:09;;;;;;;6.18;2.78;;;;;;;19.80;83.26;99019.72;4480582;32;20123;-79
2022/06/17 06:20:37;;;;;;;3.45;1.90;;;;;;;20.00;81.30;99025.22;4473584;32;20105;-79
2022/06/17 06:23:04;;;;;;;4.78;2.70;;;;;;;19.99;81.17;99029.72;4475910;32;20127;-78
2022/06/17 06:25:32;;;;;;;6.72;2.50;;;;;;;19.78;81.21;99025.25;4486612;31;20377;-77
2022/06/17 06:28:09;;;;;;;5.65;2.30;;;;;;;19.80;79.73;99030.38;4480160;31;20161;-78
2022/06/17 06:30:38;;;;;;;5.00;2.58;;;;;;;19.73;80.69;99043.56;4471190;32;20971;-77
2022/06/17 06:33:05;;;;;;;8.55;3.03;;;;;;;19.93;80.47;99043.78;4483980;32;20105;-79
2022/06/17 06:35:36;;;;;;;4.85;2.33;;;;;;;19.84;79.94;99047.59;4476890;31;20139;-78
2022/06/17 06:38:04;;;;;;;4.18;3.08;;;;;;;19.80;80.12;99056.94;4477267;32;20111;-79
2022/06/17 06:40:32;;;;;;;4.28;2.58;;;;;;;19.75;80.80;99048.69;4476887;32;20131;-78
2022/06/17 06:43:00;;;;;;;4.15;2.97;;;;;;;19.69;80.13;99051.09;4473644;31;20130;-79
2022/06/17 06:45:32;;;;;;;6.12;2.70;;;;;;;20.00;80.02;99057.97;4470087;32;20111;-78
2022/06/17 06:48:04;;;;;;;5.05;2.70;;;;;;;20.25;79.64;99048.75;4469828;32;20508;-79
2022/06/17 06:50:33;;;;;;;4.57;2.62;;;;;;;20.39;78.29;99061.97;4481621;32;20198;-78
2022/06/17 06:53:00;;;;;;;4.68;3.58;;;;;;;20.08;78.31;99061.50;4471941;32;20161;-78
2022/06/17 06:55:28;;;;;;;5.12;2.95;;;;;;;20.26;79.93;99047.72;4477427;32;20096;-76
2022/06/17 06:57:58;;;;;;;5.32;3.40;;;;;;;20.25;78.56;99054.88;4483818;31;20154;-76
2022/06/17 07:00:29;;;;;;;7.00;3.22;;;;;;;20.58;77.04;99046.31;4483645;31;20100;-78
2022/06/17 07:02:57;;;;;;;4.35;2.72;;;;;;;20.44;77.65;99053.41;4474994;32;20093;-78
2022/06/17 07:05:24;;;;;;;7.15;2.45;;;;;;;20.52;77.10;99063.06;4463218;31;20089;-77
2022/06/17 07:07:53;;;;;;;4.43;2.35;;;;;;;20.65;75.87;99062.31;4474897;32;20108;-77
2022/06/17 07:10:25;;;;;;;4.03;2.55;;;;;;;20.70;75.17;99049.31;4480542;31;20127;-78
2022/06/17 07:12:54;;;;;;;4.97;2.80;;;;;;;20.69;75.88;99068.94;4483008;31;20226;-76
2022/06/17 07:15:22;;;;;;;4.87;3.03;;;;;;;20.73;75.91;99071.00;4478835;31;20101;-77
2022/06/17 07:17:59;;;;;;;5.82;2.95;;;;;;;20.72;75.27;99073.88;4476504;32;20445;-79
2022/06/17 07:20:36;;;;;;;6.78;3.50;;;;;;;21.00;75.40;99079.16;4480514;32;20101;-77
2022/06/17 07:23:10;;;;;;;6.35;3.70;;;;;;;20.94;74.96;99068.47;4473715;32;20523;-78
2022/06/17 07:25:38;;;;;;;;;;;;;;;20.81;75.42;99080.69;4479940;31;20402;-74
2022/06/17 07:28:06;;;;;;;6.62;3.70;;;;;;;20.82;76.05;99084.19;4473313;31;19980;-77
2022/06/17 07:30:34;;;;;;;7.45;3.72;;;;;;;20.79;76.76;99077.41;4482164;32;20283;-77
2022/06/17 07:33:02;;;;;;;5.93;2.80;;;;;;;20.96;75.26;99069.91;4481737;31;20104;-78
2022/06/17 07:35:31;;;;;;;5.25;3.20;;;;;;;21.09;75.22;99077.97;4478036;32;20130;-78
2022/06/17 07:40:48;;;;;;;6.00;3.75;;;;;;;21.25;75.75;99078.66;4481201;31;20406;-77
2022/06/17 07:43:17;;;;;;;7.32;3.78;;;;;;;21.19;74.73;99084.78;4482990;31;20100;-76
2022/06/17 07:45:45;;;;;;;5.95;3.58;;;;;;;21.20;73.44;99079.25;4479284;31;20153;-77
2022/06/17 07:48:14;;;;;;;7.87;3.47;;;;;;;21.35;74.42;99089.78;4480687;32;20124;-76
2022/06/17 07:50:42;;;;;;;3.97;3.42;;;;;;;21.51;75.00;99079.81;4484136;31;20122;-77
2022/06/17 07:53:09;;;;;;;6.05;3.12;;;;;;;21.65;73.39;99081.50;4483748;31;20145;-76
2022/06/17 07:55:37;;;;;;;6.43;3.65;;;;;;;21.69;72.96;99082.72;4484693;31;20114;-76
2022/06/17 07:58:04;;;;;;;4.25;2.78;;;;;;;21.82;72.96;99078.44;4481373;32;20089;-76
2022/06/17 08:00:35;;;;;;;5.25;3.40;;;;;;;21.62;70.83;99085.38;4484820;31;20438;-76
2022/06/17 08:03:12;;;;;;;5.32;3.55;;;;;;;21.76;73.02;99077.41;4482667;31;20118;-76
2022/06/17 08:05:48;;;;;;;4.70;3.17;;;;;;;21.90;71.70;99087.06;4479035;32;20145;-77
2022/06/17 08:08:22;;;;;;;4.32;3.50;;;;;;;21.78;72.34;99092.16;4477829;32;20571;-76
2022/06/17 08:10:55;;;;;;;4.82;3.37;;;;;;;21.78;71.44;99094.03;4476030;32;20118;-76
2022/06/17 08:13:23;;;;;;;5.28;3.55;;;;;;;21.80;70.35;99092.81;4483034;31;20481;-76
2022/06/17 08:15:53;;;;;;;6.75;3.10;;;;;;;22.07;70.22;99097.34;4469246;32;20092;-77
2022/06/17 08:18:21;;;;;;;3.58;2.50;;;;;;;22.23;70.42;99107.63;4480950;31;20100;-76
2022/06/17 08:20:49;;;;;;;6.40;3.22;;;;;;;22.25;69.15;99102.09;4472885;32;20115;-76
2022/06/17 08:23:17;;;;;;;5.22;2.90;;;;;;;22.19;68.20;99097.56;4484014;31;20088;-76
2022/06/17 08:25:44;;;;;;;5.37;3.05;;;;;;;22.53;66.93;99101.91;4477591;31;20213;-77
2022/06/17 08:28:13;;;;;;;6.50;3.30;;;;;;;22.82;68.51;99103.31;4479157;32;20104;-77
2022/06/17 08:30:46;;;;;;;7.35;2.85;;;;;;;22.88;66.76;99109.66;4482002;31;20389;-77
2022/06/17 08:33:14;;;;;;;6.62;3.05;;;;;;;22.93;64.70;99109.03;4474184;32;20095;-77
2022/06/17 08:36:07;;;;;;;4.18;3.60;;;;;;;22.88;64.66;99104.31;4479049;32;20381;-76
2022/06/17 08:38:38;;;;;;;3.80;3.03;;;;;;;23.27;66.92;99112.44;4474748;32;20570;-77
2022/06/17 08:41:24;;;;;;;9.52;3.40;;;;;;;23.21;66.50;99106.12;4485247;31;20118;-76
2022/06/17 08:44:30;;;;;;;6.30;3.20;;;;;;;23.22;66.69;99102.41;4477293;32;20118;-76
2022/06/17 08:46:59;;;;;;;6.55;3.55;;;;;;;23.31;65.50;99105.66;4480429;32;20149;-76
2022/06/17 08:49:40;;;;;;;5.12;3.10;;;;;;;23.67;68.07;99112.28;4481154;32;20148;-76
2022/06/17 08:52:30;;;;;;;8.50;3.62;;;;;;;23.60;64.38;99106.16;4477953;32;20088;-76
2022/06/17 08:54:58;;;;;;;5.85;3.55;;;;;;;23.54;66.67;99110.50;4478865;32;20143;-77
2022/06/17 08:57:43;;;;;;;4.37;3.37;;;;;;;23.76;64.23;99104.84;4482104;31;20076;-77
2022/06/17 09:00:21;;;;;;;6.20;3.70;;;;;;;23.84;65.38;99110.72;4482792;32;20096;-77
2022/06/17 09:02:54;;;;;;;9.02;3.62;;;;;;;24.11;65.68;99118.63;4483565;32;20555;-77
2022/06/17 09:05:26;;;;;;;7.07;3.70;;;;;;;24.06;63.51;99118.47;4476463;31;20089;-77
2022/06/17 09:08:11;;;;;;;3.70;2.50;;;;;;;23.85;62.71;99117.78;4471424;32;20072;-77
2022/06/17 09:11:00;;;;;;;3.83;2.67;;;;;;;24.13;63.55;99115.72;4474263;32;20157;-77
2022/06/17 09:13:51;;;;;;;5.05;2.67;;;;;;;24.23;62.15;99122.25;4482493;32;20122;-77
2022/06/17 09:16:43;;;;;;;6.22;2.85;;;;;;;24.42;61.11;99127.66;4481439;32;86566;-77
2022/06/17 09:19:14;;;;;;;5.35;3.30;;;;;;;24.78;60.00;99132.34;4469831;31;20081;-77
2022/06/17 09:21:45;;;;;;;8.93;3.12;;;;;;;24.94;57.75;99138.97;4467555;32;20590;-77
2022/06/17 09:24:18;;;;;;;4.15;2.92;;;;;;;24.55;60.06;99130.22;4469130;32;20088;-77
2022/06/17 09:26:58;;;;;;;3.75;2.70;;;;;;;24.62;59.74;99131.03;4477901;32;20109;-77
2022/06/17 09:29:36;;;;;;;6.68;2.80;;;;;;;24.73;59.89;99134.03;4476700;32;20084;-77
2022/06/17 09:32:14;;;;;;;6.43;2.95;;;;;;;24.58;60.60;99135.16;4481532;31;20096;-77
2022/06/17 09:35:14;;;;;;;2.97;2.47;;;;;;;24.64;59.77;99138.03;4483017;31;20151;-77
2022/06/17 09:37:44;;;;;;;3.55;2.60;;;;;;;24.75;58.43;99139.97;4483327;31;20540;-77
2022/06/17 09:40:17;;;;;;;6.28;2.90;;;;;;;24.45;58.32;99141.44;4480255;31;20084;-77
2022/06/17 09:42:51;;;;;;;5.25;3.12;;;;;;;24.57;60.89;99138.88;4484186;31;20777;-77
2022/06/17 09:45:32;;;;;;;;;;;;;;;24.65;57.50;99145.00;4468429;32;20163;-75
2022/06/17 09:48:08;;;;;;;4.05;2.65;;;;;;;24.71;58.51;99149.47;4467453;32;19992;-76
2022/06/17 09:51:01;;;;;;;4.37;2.72;;;;;;;24.87;58.16;99153.47;4468931;32;20089;-75
2022/06/17 09:53:37;;;;;;;5.10;2.43;;;;;;;24.88;57.60;99149.75;4467742;32;20097;-75
2022/06/17 09:56:12;;;;;;;3.35;2.40;;;;;;;24.85;54.53;99156.38;4477426;32;20219;-75
2022/06/17 09:58:47;;;;;;;4.40;2.50;;;;;;;24.88;52.37;99155.94;4469171;32;20120;-74
2022/06/17 10:01:14;;;;;;;4.00;2.60;;;;;;;24.88;51.22;99158.62;4479997;32;20503;-75
2022/06/17 10:03:41;;;;;;;6.62;2.67;;;;;;;24.92;51.03;99170.53;4478008;32;20181;-76
2022/06/17 10:06:08;;;;;;;3.03;2.67;;;;;;;24.94;53.03;99162.28;4471658;31;20153;-74
2022/06/17 10:08:48;;;;;;;3.25;2.50;;;;;;;24.94;52.17;99163.09;4468195;32;20114;-75
2022/06/17 10:11:20;;;;;;;3.33;2.47;;;;;;;24.97;52.41;99173.38;4481161;32;20080;-75
2022/06/17 10:13:51;;;;;;;3.53;2.72;;;;;;;25.24;52.07;99175.78;4481720;32;20767;-74
2022/06/17 10:19:33;;;;;;;6.45;2.50;;;;;;;25.33;53.27;99176.34;4481122;32;20115;-75
2022/06/17 10:22:01;;;;;;;4.45;2.53;;;;;;;25.37;52.51;99174.81;4478252;32;20100;-75
2022/06/17 10:24:31;;;;;;;3.60;2.90;;;;;;;25.61;52.24;99183.81;4474326;31;20104;-74
2022/06/17 10:27:08;;;;;;;7.32;3.08;;;;;;;25.66;51.27;99185.84;4466553;32;20595;-76
2022/06/17 10:30:01;;;;;;;8.85;3.33;;;;;;;25.55;52.13;99178.56;4477077;32;20126;-76
2022/06/17 10:32:30;;;;;;;5.60;3.10;;;;;;;25.56;52.18;99186.37;4462705;32;20084;-76
2022/06/17 10:34:59;;;;;;;3.90;2.95;;;;;;;25.30;50.68;99191.00;4468871;32;20131;-74
2022/06/17 10:37:29;;;;;;;5.47;3.40;;;;;;;25.56;51.53;99189.06;4466634;32;20138;-74
2022/06/17 10:40:18;;;;;;;11.95;3.22;;;;;;;25.45;51.07;99181.75;4469895;32;20427;-74
2022/06/17 10:42:47;;;;;;;5.40;3.33;;;;;;;25.76;53.29;99182.62;4479920;32;20463;-74
2022/06/17 10:45:16;;;;;;;3.37;3.08;;;;;;;25.73;52.27;99191.13;4481877;31;20126;-74
2022/06/17 10:47:52;;;;;;;3.40;2.78;;;;;;;25.70;52.17;99184.34;4481662;32;20100;-75
2022/06/17 10:50:22;;;;;;;10.18;3.25;;;;;;;25.84;53.02;99171.56;4476841;31;20133;-74
2022/06/17 10:53:08;;;;;;;11.07;3.50;;;;;;;26.05;50.28;99178.34;4476948;31;20089;-74
2022/06/17 10:55:42;;;;;;;9.05;3.30;;;;;;;26.64;49.78;99175.78;4479044;32;20085;-74
2022/06/17 10:58:16;;;;;;;14.35;3.25;;;;;;;26.67;48.06;99177.22;4472616;32;20161;-74
2022/06/17 11:00:53;;;;;;;4.15;3.00;;;;;;;26.54;48.96;99183.59;4482196;31;20119;-74
2022/06/17 11:03:25;;;;;;;6.93;3.17;;;;;;;26.66;46.70;99184.47;4482143;32;20084;-74
2022/06/17 11:06:02;;;;;;;5.07;2.62;;;;;;;26.76;47.01;99183.06;4480083;31;20101;-74
2022/06/17 11:08:36;;;;;;;6.68;2.80;;;;;;;27.55;47.33;99188.03;4483770;31;20115;-74
2022/06/17 11:13:52;;;;;;;4.62;2.62;;;;;;;28.01;43.36;99191.66;4479978;32;21417;-74
2022/06/17 11:16:21;;;;;;;4.32;2.70;;;;;;;27.51;39.40;99186.88;4479963;31;20131;-75
2022/06/17 11:18:52;;;;;;;5.25;2.70;;;;;;;27.19;42.71;99177.34;4475646;32;20112;-74
2022/06/17 11:21:27;;;;;;;6.28;2.72;;;;;;;27.01;42.92;99180.13;4476437;32;20104;-74
2022/06/17 11:23:54;;;;;;;4.15;2.65;;;;;;;27.17;43.75;99192.06;4476227;32;20096;-74
2022/06/17 11:26:27;;;;;;;4.70;2.58;;;;;;;26.67;42.56;99178.03;4473282;32;20131;-73
2022/06/17 11:29:16;;;;;;;5.15;2.78;;;;;;;26.92;41.77;99190.44;4476599;32;20127;-73
2022/06/17 11:31:46;;;;;;;4.72;3.00;;;;;;;26.35;43.74;99183.69;4481433;32;20505;-73
2022/06/17 11:34:20;;;;;;;5.50;2.60;;;;;;;26.05;44.24;99190.94;4473946;32;20438;-73
2022/06/17 11:36:55;;;;;;;4.55;2.97;;;;;;;26.45;44.99;99185.81;4474693;32;20160;-74
2022/06/17 11:39:34;;;;;;;6.22;3.00;;;;;;;26.38;46.86;99185.91;4479733;32;20163;-73
2022/06/17 11:42:24;;;;;;;4.18;2.70;;;;;;;26.29;47.39;99183.78;4480325;32;20088;-73
2022/06/17 11:44:58;;;;;;;5.07;3.28;;;;;;;26.08;47.12;99177.87;4477176;32;20077;-74
2022/06/17 11:47:27;;;;;;;4.90;3.05;;;;;;;26.07;49.53;99192.34;4471971;32;20147;-74
2022/06/17 11:49:58;;;;;;;8.10;3.17;;;;;;;26.13;48.74;99187.94;4479008;31;20149;-73
2022/06/17 11:52:28;;;;;;;4.40;2.70;;;;;;;25.95;47.90;99180.72;4482644;31;20525;-73
2022/06/17 11:54:56;;;;;;;4.87;3.00;;;;;;;25.73;46.48;99183.09;4477196;32;20161;-73
2022/06/17 11:57:30;;;;;;;5.20;2.90;;;;;;;25.99;46.51;99174.69;4473361;32;20097;-73
2022/06/17 12:00:03;;;;;;;4.03;2.78;;;;;;;26.20;43.29;99164.50;4476227;32;20108;-73
2022/06/17 12:02:56;;;;;;;6.18;3.12;;;;;;;26.19;43.10;99163.69;4493497;31;20084;-74
2022/06/17 12:05:31;;;;;;;5.15;2.90;;;;;;;26.26;43.65;99157.38;4482125;32;20189;-74
2022/06/17 12:08:02;;;;;;;4.93;2.97;;;;;;;26.13;43.09;99163.75;4470573;32;21005;-74
2022/06/17 12:10:37;;;;;;;6.57;3.20;;;;;;;26.55;43.78;99150.31;4481639;31;20108;-74
2022/06/17 12:13:11;;;;;;;4.30;3.35;;;;;;;27.08;43.77;99152.06;4473022;32;20143;-74